createdAt,value
2018-07-20T00:00:04.910Z,27.20
2018-07-20T00:02:33.243Z,27.20
2018-07-20T00:05:01.647Z,27.50
2018-07-20T00:07:29.939Z,27.50
2018-07-20T00:09:58.407Z,27.50
2018-07-20T00:12:26.905Z,27.60
2018-07-20T00:14:55.211Z,27.70
2018-07-20T00:17:23.520Z,27.70
2018-07-20T00:19:51.908Z,27.70
2018-07-20T00:22:20.206Z,27.80
2018-07-20T00:24:48.660Z,27.90
2018-07-20T00:27:17.330Z,27.90
2018-07-20T00:29:45.648Z,27.90
2018-07-20T00:32:13.949Z,27.90
2018-07-20T00:34:42.309Z,27.90
2018-07-20T00:37:10.624Z,27.90
2018-07-20T00:39:38.966Z,27.90
2018-07-20T00:42:07.266Z,27.90
2018-07-20T00:44:35.711Z,27.90
2018-07-20T00:47:04.125Z,27.90
2018-07-20T00:49:32.567Z,27.90
2018-07-20T00:52:00.954Z,27.90
2018-07-20T00:54:29.304Z,28.10
2018-07-20T00:56:57.724Z,28.20
2018-07-20T00:59:26.131Z,28.10
2018-07-20T01:04:22.759Z,28.10
2018-07-20T01:06:51.282Z,28.10
2018-07-20T01:09:19.718Z,28.20
2018-07-20T01:11:48.027Z,28.10
2018-07-20T01:14:16.540Z,28.20
2018-07-20T01:16:44.992Z,28.20
2018-07-20T01:21:41.428Z,28.20
2018-07-20T01:24:09.779Z,28.20
2018-07-20T01:26:38.074Z,28.30
2018-07-20T01:29:06.459Z,28.30
2018-07-20T01:31:34.932Z,28.30
2018-07-20T01:36:31.325Z,28.40
2018-07-20T01:38:59.716Z,28.30
2018-07-20T01:41:28.026Z,28.40
2018-07-20T01:43:56.569Z,28.40
2018-07-20T01:46:24.970Z,28.40
2018-07-20T01:48:53.337Z,28.80
2018-07-20T01:51:21.780Z,28.50
2018-07-20T01:53:50.091Z,28.50
2018-07-20T01:56:18.627Z,28.60
2018-07-20T01:58:47.026Z,28.50
2018-07-20T02:01:15.386Z,28.60
2018-07-20T02:03:43.767Z,28.70
2018-07-20T02:06:12.084Z,28.60
2018-07-20T02:08:40.404Z,29.20
2018-07-20T02:11:08.723Z,28.90
2018-07-20T02:13:37.030Z,28.90
2018-07-20T02:16:05.528Z,29.10
2018-07-20T02:18:33.838Z,29.30
2018-07-20T02:21:02.390Z,29.20
2018-07-20T02:23:30.984Z,29.30
2018-07-20T02:25:59.481Z,29.30
2018-07-20T02:28:27.975Z,29.40
2018-07-20T02:30:56.379Z,29.50
2018-07-20T02:35:53.563Z,29.80
2018-07-20T02:38:21.953Z,29.70
2018-07-20T02:40:50.315Z,29.70
2018-07-20T02:43:18.646Z,29.70
2018-07-20T02:45:47.031Z,29.90
2018-07-20T02:48:15.616Z,29.90
2018-07-20T02:50:44.020Z,29.90
2018-07-20T02:53:12.354Z,30.00
2018-07-20T02:55:40.708Z,29.90
2018-07-20T02:58:09.241Z,30.00
2018-07-20T03:00:37.564Z,29.90
2018-07-20T03:05:34.143Z,30.10
2018-07-20T03:08:02.954Z,30.20
2018-07-20T03:10:31.489Z,30.50
2018-07-20T03:13:00.337Z,30.40
2018-07-20T03:15:28.931Z,30.40
2018-07-20T03:17:57.358Z,30.60
2018-07-20T03:20:26.013Z,30.40
2018-07-20T03:22:54.582Z,30.60
2018-07-20T03:25:23.215Z,30.40
2018-07-20T03:27:51.872Z,30.50
2018-07-20T03:30:20.211Z,30.40
2018-07-20T03:32:48.590Z,30.50
2018-07-20T03:35:16.913Z,30.00
2018-07-20T03:37:45.431Z,30.50
2018-07-20T03:40:13.843Z,30.90
2018-07-20T03:42:42.198Z,30.80
2018-07-20T03:45:10.695Z,30.80
2018-07-20T03:47:39.207Z,30.90
2018-07-20T03:50:07.916Z,30.90
2018-07-20T03:52:36.354Z,31.20
2018-07-20T03:55:04.881Z,31.20
2018-07-20T03:57:33.242Z,31.10
2018-07-20T04:00:01.732Z,31.20
2018-07-20T04:02:30.365Z,31.20
2018-07-20T04:04:58.982Z,31.30
2018-07-20T04:07:27.703Z,31.40
2018-07-20T04:09:56.205Z,31.70
2018-07-20T04:12:24.651Z,31.60
2018-07-20T04:14:53.070Z,31.90
2018-07-20T04:17:21.515Z,31.90
2018-07-20T04:19:49.911Z,32.10
2018-07-20T04:22:18.259Z,32.50
2018-07-20T04:24:46.590Z,32.20
2018-07-20T04:27:14.984Z,32.20
2018-07-20T04:29:43.345Z,32.40
2018-07-20T04:32:12.236Z,32.70
2018-07-20T04:34:40.755Z,32.40
2018-07-20T04:37:09.135Z,32.40
2018-07-20T04:39:37.461Z,32.40
2018-07-20T04:42:06.139Z,32.50
2018-07-20T04:44:34.454Z,32.50
2018-07-20T04:49:30.856Z,32.40
2018-07-20T04:52:02.240Z,32.30
2018-07-20T04:54:30.706Z,32.40
2018-07-20T04:57:05.635Z,32.50
2018-07-20T04:59:34.049Z,32.70
2018-07-20T05:02:02.547Z,32.70
2018-07-20T05:04:30.898Z,32.70
2018-07-20T05:06:59.439Z,32.70
2018-07-20T05:09:28.063Z,32.70
2018-07-20T05:11:56.516Z,32.80
2018-07-20T05:14:25.102Z,32.90
2018-07-20T05:16:53.559Z,32.80
2018-07-20T05:19:21.997Z,33.10
2018-07-20T05:21:50.406Z,33.20
2018-07-20T05:24:18.803Z,33.20
2018-07-20T05:26:47.098Z,33.00
2018-07-20T05:29:15.479Z,32.90
2018-07-20T05:31:43.893Z,32.90
2018-07-20T05:34:12.512Z,32.70
2018-07-20T05:36:40.823Z,32.80
2018-07-20T05:39:10.240Z,32.80
2018-07-20T05:41:38.528Z,32.80
2018-07-20T05:44:07.588Z,32.70
2018-07-20T05:46:36.288Z,32.70
2018-07-20T05:49:04.689Z,32.70
2018-07-20T05:51:33.106Z,32.80
2018-07-20T05:54:01.478Z,32.60
2018-07-20T05:56:29.836Z,32.60
2018-07-20T05:58:58.304Z,32.60
2018-07-20T06:01:26.647Z,32.60
2018-07-20T06:03:55.052Z,32.50
2018-07-20T06:06:23.485Z,32.50
2018-07-20T06:08:51.875Z,32.70
2018-07-20T06:11:20.215Z,32.50
2018-07-20T06:13:48.668Z,32.50
2018-07-20T06:16:16.995Z,32.70
2018-07-20T06:18:45.361Z,32.90
2018-07-20T06:21:13.642Z,32.80
2018-07-20T06:23:42.075Z,32.70
2018-07-20T06:26:10.482Z,32.80
2018-07-20T06:28:38.846Z,32.80
2018-07-20T06:31:07.208Z,32.70
2018-07-20T06:33:35.566Z,32.70
2018-07-20T06:36:04.043Z,32.50
2018-07-20T06:38:32.519Z,32.30
2018-07-20T06:41:00.837Z,32.30
2018-07-20T06:43:29.399Z,32.20
2018-07-20T06:45:57.749Z,31.90
2018-07-20T06:48:26.234Z,31.80
2018-07-20T06:50:54.630Z,31.70
2018-07-20T06:53:23.096Z,31.60
2018-07-20T06:55:51.514Z,31.30
2018-07-20T06:58:19.854Z,31.30
2018-07-20T07:00:48.211Z,31.20
2018-07-20T07:03:16.558Z,31.10
2018-07-20T07:05:44.884Z,31.00
2018-07-20T07:08:13.258Z,31.00
2018-07-20T07:10:41.803Z,30.80
2018-07-20T07:13:10.440Z,30.70
2018-07-20T07:15:38.772Z,30.60
2018-07-20T07:18:07.244Z,30.50
2018-07-20T07:20:35.579Z,30.50
2018-07-20T07:25:32.184Z,30.50
2018-07-20T07:28:00.555Z,30.60
2018-07-20T07:30:28.904Z,30.20
2018-07-20T07:32:57.376Z,30.20
2018-07-20T07:35:25.852Z,30.10
2018-07-20T07:37:54.760Z,30.10
2018-07-20T07:40:23.323Z,30.00
2018-07-20T07:42:52.558Z,30.00
2018-07-20T07:45:20.945Z,30.20
2018-07-20T07:47:49.414Z,30.00
2018-07-20T07:52:46.052Z,30.10
2018-07-20T07:55:14.449Z,30.00
2018-07-20T07:57:42.770Z,30.00
2018-07-20T08:00:11.301Z,30.00
2018-07-20T08:02:39.899Z,29.90
2018-07-20T08:05:08.457Z,30.00
2018-07-20T08:07:36.903Z,29.80
2018-07-20T08:10:05.498Z,29.70
2018-07-20T08:12:33.777Z,29.60
2018-07-20T08:15:02.247Z,29.50
2018-07-20T08:17:31.079Z,29.50
2018-07-20T08:19:59.807Z,29.30
2018-07-20T08:22:28.206Z,29.30
2018-07-20T08:24:56.683Z,29.10
2018-07-20T08:27:25.166Z,29.10
2018-07-20T08:29:53.946Z,29.00
2018-07-20T08:32:22.360Z,28.90
2018-07-20T08:34:50.854Z,28.90
2018-07-20T08:37:19.206Z,28.80
2018-07-20T08:39:47.650Z,28.70
2018-07-20T08:42:15.958Z,28.70
2018-07-20T08:44:44.518Z,28.60
2018-07-20T08:47:12.967Z,28.60
2018-07-20T08:49:41.450Z,28.60
2018-07-20T08:52:10.142Z,28.50
2018-07-20T08:54:38.557Z,28.40
2018-07-20T08:57:06.911Z,28.40
2018-07-20T08:59:35.760Z,28.20
2018-07-20T09:02:04.461Z,28.30
2018-07-20T09:04:32.900Z,28.10
2018-07-20T09:07:01.285Z,27.80
2018-07-20T09:09:29.864Z,27.80
2018-07-20T09:11:58.344Z,27.80
2018-07-20T09:14:27.413Z,27.60
2018-07-20T09:16:55.976Z,27.40
2018-07-20T09:19:24.696Z,27.40
2018-07-20T09:21:53.135Z,27.10
2018-07-20T09:24:21.935Z,27.00
2018-07-20T09:26:50.343Z,26.70
2018-07-20T09:29:19.377Z,26.60
2018-07-20T09:31:47.787Z,26.50
2018-07-20T09:34:16.256Z,25.80
2018-07-20T09:36:44.636Z,24.90
2018-07-20T09:39:13.093Z,25.50
2018-07-20T09:41:41.814Z,25.30
2018-07-20T09:44:10.318Z,24.40
2018-07-20T09:46:38.775Z,25.10
2018-07-20T09:49:07.134Z,24.50
2018-07-20T09:51:35.691Z,24.30
2018-07-20T09:54:04.459Z,24.00
2018-07-20T09:56:33.180Z,23.90
2018-07-20T09:59:01.953Z,23.80
2018-07-20T10:01:30.321Z,22.70
2018-07-20T10:03:58.887Z,23.40
2018-07-20T10:06:27.714Z,22.90
2018-07-20T10:08:56.148Z,22.70
2018-07-20T10:11:24.789Z,22.30
2018-07-20T10:16:21.194Z,21.40
2018-07-20T10:18:49.718Z,21.40
2018-07-20T10:21:18.124Z,21.90
2018-07-20T10:23:46.472Z,21.80
2018-07-20T10:26:14.957Z,21.40
2018-07-20T10:28:43.280Z,21.50
2018-07-20T10:31:11.899Z,20.80
2018-07-20T10:33:40.309Z,21.00
2018-07-20T10:36:08.898Z,21.10
2018-07-20T10:38:37.402Z,21.50
2018-07-20T10:41:05.922Z,20.70
2018-07-20T10:43:34.654Z,20.70
2018-07-20T10:46:03.031Z,20.60
2018-07-20T10:48:31.424Z,20.50
2018-07-20T10:51:00.059Z,19.90
2018-07-20T10:53:31.005Z,19.50
2018-07-20T10:55:59.782Z,19.40
2018-07-20T10:58:28.353Z,19.60
2018-07-20T11:00:56.887Z,19.50
2018-07-20T11:03:25.504Z,18.50
2018-07-20T11:05:53.897Z,18.60
2018-07-20T11:08:22.222Z,18.50
2018-07-20T11:10:50.784Z,18.20
2018-07-20T11:13:19.082Z,18.60
2018-07-20T11:15:47.603Z,18.60
2018-07-20T11:18:15.957Z,18.30
2018-07-20T11:20:44.569Z,18.00
2018-07-20T11:23:12.922Z,18.40
2018-07-20T11:25:41.396Z,18.30
2018-07-20T11:28:09.876Z,18.10
2018-07-20T11:30:38.231Z,18.20
2018-07-20T11:33:06.668Z,18.20
2018-07-20T11:38:03.184Z,18.30
2018-07-20T11:40:31.547Z,18.40
2018-07-20T11:42:59.956Z,17.60
2018-07-20T11:45:28.304Z,17.50
2018-07-20T11:47:56.622Z,17.70
2018-07-20T11:50:25.267Z,17.50
2018-07-20T11:52:53.870Z,17.80
2018-07-20T11:55:22.262Z,17.90
2018-07-20T11:57:50.564Z,17.80
2018-07-20T12:00:18.881Z,17.90
2018-07-20T12:02:47.202Z,17.70
2018-07-20T12:05:15.758Z,17.80
2018-07-20T12:07:44.170Z,17.80
2018-07-20T12:10:12.490Z,17.80
2018-07-20T12:12:40.884Z,17.80
2018-07-20T12:15:09.228Z,17.70
2018-07-20T12:17:37.547Z,17.70
2018-07-20T12:20:05.887Z,17.70
2018-07-20T12:22:34.180Z,17.10
2018-07-20T12:25:02.725Z,17.20
2018-07-20T12:27:31.069Z,16.70
2018-07-20T12:29:59.507Z,16.40
2018-07-20T12:32:27.851Z,16.60
2018-07-20T12:34:56.183Z,16.60
2018-07-20T12:37:24.551Z,16.70
2018-07-20T12:39:52.964Z,16.50
2018-07-20T12:42:21.516Z,16.60
2018-07-20T12:44:49.806Z,16.40
2018-07-20T12:47:18.475Z,16.40
2018-07-20T12:49:46.889Z,16.50
2018-07-20T12:52:15.408Z,16.30
2018-07-20T12:54:44.163Z,16.20
2018-07-20T12:57:12.578Z,16.20
2018-07-20T12:59:41.686Z,16.20
2018-07-20T13:02:10.020Z,16.20
2018-07-20T13:04:38.364Z,16.20
2018-07-20T13:07:06.824Z,16.10
2018-07-20T13:09:35.379Z,16.00
2018-07-20T13:12:03.788Z,15.90
2018-07-20T13:14:32.157Z,15.70
2018-07-20T13:17:00.638Z,15.60
2018-07-20T13:19:29.063Z,15.40
2018-07-20T13:21:57.622Z,15.40
2018-07-20T13:24:26.131Z,15.30
2018-07-20T13:26:54.523Z,15.20
2018-07-20T13:29:22.915Z,15.10
2018-07-20T13:31:51.283Z,14.80
2018-07-20T13:34:19.639Z,14.80
2018-07-20T13:36:48.035Z,14.90
2018-07-20T13:39:16.483Z,15.10
2018-07-20T13:41:44.903Z,15.30
2018-07-20T13:44:13.303Z,15.60
2018-07-20T13:46:41.754Z,15.70
2018-07-20T13:49:10.078Z,15.50
2018-07-20T13:51:38.440Z,15.40
2018-07-20T13:54:06.936Z,15.40
2018-07-20T13:56:35.266Z,15.10
2018-07-20T13:59:03.920Z,15.00
2018-07-20T14:01:32.274Z,14.80
2018-07-20T14:04:00.771Z,14.60
2018-07-20T14:06:29.172Z,14.50
2018-07-20T14:08:57.687Z,14.30
2018-07-20T14:11:26.342Z,14.10
2018-07-20T14:13:54.699Z,14.00
2018-07-20T14:16:23.095Z,13.90
2018-07-20T14:18:51.470Z,13.70
2018-07-20T14:21:19.842Z,13.30
2018-07-20T14:23:48.233Z,13.40
2018-07-20T14:26:16.691Z,13.30
2018-07-20T14:28:44.995Z,13.30
2018-07-20T14:31:13.364Z,13.20
2018-07-20T14:33:41.917Z,13.00
2018-07-20T14:36:10.263Z,13.20
2018-07-20T14:38:38.600Z,13.00
2018-07-20T14:41:07.063Z,13.10
2018-07-20T14:43:35.410Z,13.20
2018-07-20T14:46:03.954Z,13.30
2018-07-20T14:48:32.323Z,13.40
2018-07-20T14:53:28.803Z,13.80
2018-07-20T14:55:57.222Z,14.30
2018-07-20T14:58:25.842Z,13.90
2018-07-20T15:00:54.791Z,14.60
2018-07-20T15:03:23.191Z,14.80
2018-07-20T15:05:51.777Z,15.40
2018-07-20T15:08:20.167Z,15.50
2018-07-20T15:10:48.710Z,15.90
2018-07-20T15:13:17.479Z,16.00
2018-07-20T15:15:45.922Z,16.20
2018-07-20T15:18:14.519Z,16.40
2018-07-20T15:20:43.008Z,16.70
2018-07-20T15:23:11.525Z,16.90
2018-07-20T15:25:40.118Z,17.20
2018-07-20T15:28:08.454Z,17.40
2018-07-20T15:30:36.818Z,17.70
2018-07-20T15:33:05.143Z,17.80
2018-07-20T15:35:33.523Z,17.90
2018-07-20T15:38:02.171Z,18.20
2018-07-20T15:40:30.572Z,18.30
2018-07-20T15:42:58.980Z,18.10
2018-07-20T15:45:27.469Z,18.60
2018-07-20T15:47:56.002Z,18.50
2018-07-20T15:53:36.251Z,19.20
2018-07-20T15:55:20.806Z,18.90
2018-07-20T15:57:49.192Z,19.10
2018-07-20T16:00:17.654Z,19.30
2018-07-20T16:05:14.037Z,19.40
2018-07-20T16:07:42.382Z,19.90
2018-07-20T16:10:10.696Z,19.60
2018-07-20T16:12:39.143Z,19.70
2018-07-20T16:15:07.513Z,19.60
2018-07-20T16:17:35.957Z,19.70
2018-07-20T16:20:04.331Z,19.20
2018-07-20T16:22:32.714Z,19.80
2018-07-20T16:25:01.055Z,19.80
2018-07-20T16:27:29.480Z,19.90
2018-07-20T16:29:57.902Z,20.00
2018-07-20T16:32:26.311Z,20.10
2018-07-20T16:34:54.665Z,20.30
2018-07-20T16:37:23.403Z,20.30
2018-07-20T16:39:51.997Z,20.40
2018-07-20T16:42:20.556Z,20.40
2018-07-20T16:44:49.454Z,20.40
2018-07-20T16:47:17.856Z,20.60
2018-07-20T16:49:46.218Z,20.60
2018-07-20T16:52:14.688Z,20.40
2018-07-20T16:54:43.206Z,20.50
2018-07-20T16:57:11.634Z,20.70
2018-07-20T16:59:40.187Z,20.70
2018-07-20T17:02:08.950Z,20.70
2018-07-20T17:04:37.371Z,20.80
2018-07-20T17:07:05.945Z,20.50
2018-07-20T17:09:34.282Z,20.50
2018-07-20T17:12:02.711Z,20.70
2018-07-20T17:14:31.071Z,20.90
2018-07-20T17:16:59.644Z,20.90
2018-07-20T17:19:27.993Z,20.80
2018-07-20T17:21:56.400Z,20.90
2018-07-20T17:24:24.734Z,21.00
2018-07-20T17:26:53.156Z,21.00
2018-07-20T17:29:21.721Z,21.00
2018-07-20T17:31:50.158Z,20.90
2018-07-20T17:34:18.515Z,21.10
2018-07-20T17:36:46.865Z,20.90
2018-07-20T17:39:15.401Z,20.70
2018-07-20T17:41:43.885Z,20.80
2018-07-20T17:44:12.363Z,20.90
2018-07-20T17:46:40.866Z,20.90
2018-07-20T17:49:09.415Z,20.80
2018-07-20T17:51:37.718Z,20.90
2018-07-20T17:54:06.085Z,20.90
2018-07-20T17:56:34.412Z,20.70
2018-07-20T17:59:02.698Z,20.70
2018-07-20T18:01:31.006Z,20.90
2018-07-20T18:03:59.346Z,20.90
2018-07-20T18:06:27.690Z,20.70
2018-07-20T18:08:57.239Z,20.90
2018-07-20T18:11:26.062Z,21.00
2018-07-20T18:13:54.751Z,21.10
2018-07-20T18:16:23.279Z,20.80
2018-07-20T18:18:51.924Z,20.90
2018-07-20T18:21:20.394Z,21.00
2018-07-20T18:23:48.865Z,20.90
2018-07-20T18:26:17.370Z,21.00
2018-07-20T18:28:45.752Z,20.90
2018-07-20T18:31:14.116Z,20.90
2018-07-20T18:33:42.507Z,21.10
2018-07-20T18:36:10.792Z,21.10
2018-07-20T18:38:39.090Z,21.00
2018-07-20T18:41:07.539Z,21.00
2018-07-20T18:43:35.972Z,21.10
2018-07-20T18:46:04.376Z,21.10
2018-07-20T18:48:32.718Z,21.00
2018-07-20T18:51:01.084Z,21.20
2018-07-20T18:53:29.462Z,21.20
2018-07-20T18:55:57.894Z,21.30
2018-07-20T18:58:26.266Z,21.00
2018-07-20T19:00:54.729Z,21.20
2018-07-20T19:03:23.476Z,21.70
2018-07-20T19:05:52.027Z,21.70
2018-07-20T19:08:20.380Z,22.10
2018-07-20T19:10:48.759Z,21.80
2018-07-20T19:13:17.163Z,22.10
2018-07-20T19:15:45.553Z,22.40
2018-07-20T19:18:13.867Z,22.50
2018-07-20T19:20:42.240Z,22.30
2018-07-20T19:23:10.560Z,22.90
2018-07-20T19:25:38.995Z,23.00
2018-07-20T19:28:07.385Z,23.60
2018-07-20T19:30:35.855Z,23.90
2018-07-20T19:33:04.213Z,23.60
2018-07-20T19:35:32.627Z,24.10
2018-07-20T19:38:01.076Z,23.90
2018-07-20T19:40:29.555Z,24.10
2018-07-20T19:42:57.972Z,24.10
2018-07-20T19:45:26.398Z,24.30
2018-07-20T19:47:55.064Z,24.20
2018-07-20T19:50:23.799Z,24.30
2018-07-20T19:52:52.179Z,24.30
2018-07-20T19:55:20.550Z,24.40
2018-07-20T19:57:49.032Z,24.50
2018-07-20T20:00:17.799Z,24.40
2018-07-20T20:02:46.231Z,24.40
2018-07-20T20:05:14.782Z,24.40
2018-07-20T20:07:43.177Z,24.40
2018-07-20T20:10:11.580Z,24.50
2018-07-20T20:12:39.910Z,24.40
2018-07-20T20:15:08.564Z,24.40
2018-07-20T20:17:36.936Z,24.40
2018-07-20T20:20:08.300Z,24.40
2018-07-20T20:22:36.866Z,24.50
2018-07-20T20:25:05.311Z,24.40
2018-07-20T20:27:33.920Z,24.50
2018-07-20T20:30:02.455Z,24.60
2018-07-20T20:32:30.995Z,24.60
2018-07-20T20:34:59.607Z,24.60
2018-07-20T20:37:28.026Z,24.70
2018-07-20T20:39:56.572Z,24.70
2018-07-20T20:44:53.425Z,24.70
2018-07-20T20:47:22.717Z,24.70
2018-07-20T20:49:51.214Z,25.10
2018-07-20T20:52:19.995Z,24.60
2018-07-20T20:54:48.424Z,24.60
2018-07-20T20:57:16.824Z,24.70
2018-07-20T20:59:45.406Z,24.60
2018-07-20T21:02:13.757Z,24.60
2018-07-20T21:04:42.183Z,24.70
2018-07-20T21:07:10.515Z,24.70
2018-07-20T21:09:39.172Z,24.80
2018-07-20T21:12:07.744Z,24.80
2018-07-20T21:14:36.023Z,24.70
2018-07-20T21:17:04.476Z,24.90
2018-07-20T21:19:32.912Z,24.90
2018-07-20T21:22:01.561Z,24.80
2018-07-20T21:24:30.123Z,24.80
2018-07-20T21:26:59.156Z,24.90
2018-07-20T21:29:27.723Z,24.90
2018-07-20T21:31:56.192Z,24.90
2018-07-20T21:34:24.584Z,25.00
2018-07-20T21:36:52.991Z,25.20
2018-07-20T21:39:21.439Z,25.20
2018-07-20T21:41:49.847Z,25.30
2018-07-20T21:44:18.199Z,25.30
2018-07-20T21:46:46.579Z,25.70
2018-07-20T21:49:15.142Z,25.40
2018-07-20T21:51:43.670Z,25.50
2018-07-20T21:54:12.038Z,25.60
2018-07-20T21:56:40.415Z,25.70
2018-07-20T21:59:08.732Z,25.60
2018-07-20T22:01:37.040Z,25.50
2018-07-20T22:04:05.393Z,25.60
2018-07-20T22:06:33.711Z,25.70
2018-07-20T22:09:02.109Z,25.80
2018-07-20T22:11:30.525Z,25.80
2018-07-20T22:13:58.994Z,25.90
2018-07-20T22:16:27.413Z,25.90
2018-07-20T22:18:55.796Z,25.90
2018-07-20T22:21:24.133Z,25.80
2018-07-20T22:26:20.632Z,25.50
2018-07-20T22:28:48.977Z,25.40
2018-07-20T22:31:17.359Z,25.10
2018-07-20T22:33:45.659Z,25.10
2018-07-20T22:36:14.078Z,25.00
2018-07-20T22:38:42.431Z,24.80
2018-07-20T22:41:10.781Z,25.00
2018-07-20T22:43:39.079Z,25.20
2018-07-20T22:46:07.901Z,25.20
2018-07-20T22:48:36.355Z,25.20
2018-07-20T22:51:04.796Z,25.30
2018-07-20T22:53:33.230Z,25.30
2018-07-20T22:56:01.602Z,25.30
2018-07-20T22:58:30.056Z,25.30
2018-07-20T23:00:58.540Z,25.70
2018-07-20T23:03:27.232Z,25.70
2018-07-20T23:05:55.620Z,25.80
2018-07-20T23:08:23.966Z,25.90
2018-07-20T23:10:52.311Z,26.00
2018-07-20T23:13:20.709Z,26.00
2018-07-20T23:15:49.094Z,26.00
2018-07-20T23:18:17.388Z,26.20
2018-07-20T23:20:45.749Z,26.40
2018-07-20T23:23:14.187Z,26.50
2018-07-20T23:25:42.719Z,26.60
2018-07-20T23:28:11.136Z,26.80
2018-07-20T23:30:39.479Z,27.00
2018-07-20T23:33:07.944Z,27.10
2018-07-20T23:35:36.484Z,27.30
2018-07-20T23:38:05.043Z,27.60
2018-07-20T23:40:33.518Z,27.70
2018-07-20T23:43:01.861Z,28.20
2018-07-20T23:45:30.298Z,27.70
2018-07-20T23:47:58.836Z,28.20
2018-07-20T23:50:27.287Z,28.30
2018-07-20T23:52:55.989Z,28.70
2018-07-20T23:55:24.513Z,28.90
2018-07-20T23:57:52.848Z,29.60
